This is the latest recevied weather packets stored in our database for station/object EFHKFMI. If no packets are shown the sender has not sent any weather packets the latest 10 day(s).
| Time | Temp. | Humidity | Pressure | Rain* | Wind** | Luminosity | Snow |
|---|---|---|---|---|---|---|---|
| 1777536411 | 7.22° C | 82% | 1021.7 hPa | 0 mm | - | - | - |
| 1777535211 | 6.67° C | 80% | 1021.5 hPa | 0 mm | - | - | - |
| 1777534011 | 6.67° C | 76% | 1021.7 hPa | 0 mm | - | - | - |
| 1777532811 | 6.11° C | 74% | 1021.7 hPa | 0 mm | - | - | - |
| 1777531611 | 6.11° C | 71% | 1021.6 hPa | 0 mm | - | - | - |
| 1777530411 | 5.56° C | 72% | 1021.8 hPa | 0 mm | - | - | - |
| 1777529211 | 5° C | 71% | 1021.6 hPa | 0 mm | - | - | - |
| 1777528010 | 5° C | 69% | 1021.7 hPa | 0 mm | - | - | - |
| 1777526810 | 4.44° C | 70% | 1022.1 hPa | 0 mm | - | - | - |
| 1777525610 | 3.89° C | 68% | 1021.9 hPa | 0 mm | - | - | - |
| 1777524410 | 3.89° C | 68% | 1022.4 hPa | 0 mm | - | - | - |
| 1777523210 | 3.89° C | 67% | 1022.3 hPa | 0 mm | - | - | - |
| 1777522010 | 3.33° C | 66% | 1022.3 hPa | 0 mm | - | - | - |
| 1777520810 | 3.33° C | 65% | 1022.2 hPa | 0 mm | - | - | - |
| 1777519610 | 3.33° C | 62% | 1022.3 hPa | 0 mm | - | - | - |
| 1777518410 | 2.78° C | 62% | 1022.4 hPa | 0 mm | - | - | - |
| 1777517210 | 3.33° C | 60% | 1022.4 hPa | 0 mm | - | - | - |
| 1777516010 | 2.78° C | 59% | 1022.4 hPa | 0 mm | - | - | - |
| 1777514810 | 2.22° C | 60% | 1022.8 hPa | 0 mm | - | - | - |
| 1777513610 | 2.22° C | 59% | 1022.5 hPa | 0 mm | - | - | - |
| 1777512410 | 2.22° C | 57% | 1022.7 hPa | 0 mm | - | - | - |
| 1777511210 | 2.22° C | 58% | 1022.9 hPa | 0 mm | - | - | - |
| 1777510010 | 2.22° C | 56% | 1023.4 hPa | 0 mm | - | - | - |
| 1777508809 | 1.11° C | 60% | 1023.4 hPa | 0 mm | - | - | - |
| 1777507610 | 0.56° C | 58% | 1023.5 hPa | 0 mm | - | - | - |
* Rain latest hour (hover to see other rain measurements)
** Current wind speed in m/s (hover to see current wind gust speed)